createdAt,value
2017-12-01T00:01:27.789Z,14.8
2017-12-01T00:11:25.968Z,17.7
2017-12-01T00:21:26.844Z,17.4
2017-12-01T00:31:31.383Z,18.5
2017-12-01T00:41:46.378Z,17.7
2017-12-01T01:11:31.318Z,17.7
2017-12-01T01:21:32.152Z,21.3
2017-12-01T01:31:31.636Z,17.8
2017-12-01T01:41:31.652Z,16.7
2017-12-01T01:51:26.554Z,18.2
2017-12-01T02:01:33.884Z,16.6
2017-12-01T02:11:32.111Z,17.6
2017-12-01T02:21:31.804Z,17.3
2017-12-01T02:31:32.115Z,17.2
2017-12-01T02:41:31.281Z,15.8
2017-12-01T02:51:33.363Z,14.6
2017-12-01T03:01:31.687Z,15.7
2017-12-01T03:11:31.940Z,13.0
2017-12-01T03:21:32.540Z,14.1
2017-12-01T03:31:33.359Z,12.9
2017-12-01T03:41:25.788Z,12.3
2017-12-01T03:51:26.418Z,12.5
2017-12-01T04:01:32.133Z,13.1
2017-12-01T04:11:28.564Z,14.1
2017-12-01T04:21:32.974Z,14.0
2017-12-01T04:31:34.621Z,13.3
2017-12-01T04:41:31.820Z,13.6
2017-12-01T04:51:32.245Z,12.5
2017-12-01T05:01:31.892Z,10.9
2017-12-01T05:11:31.512Z,9.5
2017-12-01T05:21:31.854Z,9.5
2017-12-01T05:31:31.973Z,8.7
2017-12-01T05:41:32.688Z,10.7
2017-12-01T05:51:27.221Z,12.5
2017-12-01T06:01:26.300Z,11.6
2017-12-01T06:11:29.613Z,10.7
2017-12-01T06:21:25.985Z,10.7
2017-12-01T06:31:34.614Z,13.5
2017-12-01T06:41:32.786Z,13.0
2017-12-01T06:51:30.360Z,15.9
2017-12-01T07:01:27.650Z,19.0
2017-12-01T07:11:26.922Z,20.4
2017-12-01T07:21:32.499Z,20.4
2017-12-01T07:31:29.947Z,18.4
2017-12-01T07:41:27.769Z,19.9
2017-12-01T07:51:25.873Z,19.6
2017-12-01T08:01:32.175Z,17.9
2017-12-01T08:11:27.761Z,20.6
2017-12-01T08:21:31.724Z,23.4
2017-12-01T08:31:26.109Z,19.4
2017-12-01T08:41:29.403Z,21.0
2017-12-01T08:51:26.853Z,19.2
2017-12-01T09:01:26.139Z,15.3
2017-12-01T09:11:27.185Z,16.7
2017-12-01T09:21:28.536Z,17.3
2017-12-01T09:31:32.867Z,16.4
2017-12-01T09:41:28.468Z,14.6
2017-12-01T09:51:27.523Z,14.0
2017-12-01T10:01:26.431Z,22.4
2017-12-01T10:11:26.349Z,21.8
2017-12-01T10:21:25.927Z,20.8
2017-12-01T10:31:27.909Z,23.4
2017-12-01T10:41:26.804Z,18.1
2017-12-01T10:51:26.539Z,19.8
2017-12-01T11:01:25.997Z,19.4
2017-12-01T11:11:28.566Z,25.1
2017-12-01T11:21:29.030Z,25.1
2017-12-01T11:31:32.241Z,27.4
2017-12-01T11:41:32.053Z,25.4
2017-12-01T11:51:26.670Z,24.3
2017-12-01T12:01:26.870Z,25.6
2017-12-01T12:11:33.461Z,24.2
2017-12-01T12:21:32.708Z,26.0
2017-12-01T12:31:25.926Z,23.2
2017-12-01T12:41:26.332Z,21.1
2017-12-01T12:51:32.298Z,15.4
2017-12-01T13:01:28.520Z,14.6
2017-12-01T13:11:31.926Z,16.3
2017-12-01T13:21:26.358Z,18.4
2017-12-01T13:31:26.510Z,20.3
2017-12-01T13:41:28.836Z,17.8
2017-12-01T13:51:27.413Z,19.3
2017-12-01T14:01:31.916Z,18.5
2017-12-01T14:11:27.758Z,18.7
2017-12-01T14:21:27.521Z,18.5
2017-12-01T14:31:27.347Z,20.5
2017-12-01T14:41:28.113Z,18.8
2017-12-01T14:51:26.731Z,19.2
2017-12-01T15:01:26.505Z,22.0
2017-12-01T15:11:27.635Z,23.3
2017-12-01T15:21:27.856Z,21.5
2017-12-01T15:31:27.298Z,22.9
2017-12-01T15:41:25.946Z,24.7
2017-12-01T15:51:27.588Z,24.4
2017-12-01T16:01:27.845Z,27.0
2017-12-01T16:11:27.287Z,28.4
2017-12-01T16:21:27.375Z,28.9
2017-12-01T16:31:25.772Z,29.9
2017-12-01T16:41:27.804Z,31.1
2017-12-01T16:51:28.077Z,32.2
2017-12-01T17:01:26.696Z,32.7
2017-12-01T17:11:27.753Z,38.9
2017-12-01T17:21:30.259Z,44.1
2017-12-01T17:31:28.572Z,49.0
2017-12-01T17:41:27.113Z,50.8
2017-12-01T17:51:27.918Z,53.8
2017-12-01T18:01:30.959Z,52.5
2017-12-01T18:11:26.654Z,51.0
2017-12-01T18:21:28.843Z,53.2
2017-12-01T18:31:26.450Z,53.0
2017-12-01T18:41:28.314Z,53.3
2017-12-01T18:51:30.173Z,52.0
2017-12-01T19:01:27.828Z,53.8
2017-12-01T19:11:28.976Z,57.1
2017-12-01T19:21:26.366Z,58.6
2017-12-01T19:31:27.571Z,59.7
2017-12-01T19:41:27.816Z,60.1
2017-12-01T19:51:29.312Z,60.6
2017-12-01T20:01:28.787Z,60.7
2017-12-01T20:11:27.124Z,60.1
2017-12-01T20:21:27.496Z,61.6
2017-12-01T20:31:26.391Z,62.8
2017-12-01T20:41:28.929Z,63.8
2017-12-01T20:51:26.628Z,63.9
2017-12-01T21:01:26.456Z,68.7
2017-12-01T21:11:26.151Z,70.6
2017-12-01T21:21:25.712Z,68.0
2017-12-01T21:31:28.599Z,72.6
2017-12-01T21:41:26.619Z,76.2
2017-12-01T21:51:26.076Z,72.9
2017-12-01T22:01:26.094Z,74.5
2017-12-01T22:11:26.697Z,77.3
2017-12-01T22:21:28.381Z,75.0
2017-12-01T22:31:25.600Z,75.9
2017-12-01T22:41:25.893Z,76.4
2017-12-01T22:51:27.332Z,79.9
2017-12-01T23:01:25.728Z,78.9
2017-12-01T23:11:33.913Z,90.0
2017-12-01T23:21:32.161Z,85.3
2017-12-01T23:31:32.403Z,90.8
2017-12-01T23:41:32.443Z,81.8
2017-12-01T23:51:25.863Z,84.8
